Time;durP1;ratioP1;P1;durP2;ratioP2;P2;SDS_P1;SDS_P2;PMS_P1;PMS_P2;Temp;Humidity;BMP_temperature;BMP_pressure;BME280_temperature;BME280_humidity;BME280_pressure;Samples;Min_cycle;Max_cycle;Signal;HPM_P1;HPM_P2
2021/12/19 00:09:29;;;;;;;10.10;5.80;;;;;;;7.50;90.99;103003.38;5044243;28;20213;-76
2021/12/19 00:11:56;;;;;;;9.57;5.03;;;;;;;7.50;91.06;102994.06;5031780;28;20182;-75
2021/12/19 00:14:23;;;;;;;10.10;5.37;;;;;;;7.49;90.94;102992.31;5042187;28;20202;-76
2021/12/19 00:16:50;;;;;;;8.33;3.77;;;;;;;7.49;90.86;102982.13;5028200;28;20229;-76
2021/12/19 00:19:16;;;;;;;9.27;4.30;;;;;;;7.48;90.82;102985.47;5039237;28;20186;-76
2021/12/19 00:21:41;;;;;;;8.80;4.67;;;;;;;7.49;90.37;102996.50;5047669;28;20304;-76
2021/12/19 00:24:07;;;;;;;8.10;4.47;;;;;;;7.50;90.66;102993.19;5034190;28;20236;-76
2021/12/19 00:26:33;;;;;;;10.20;4.13;;;;;;;7.50;90.46;102991.53;5049398;28;20178;-76
2021/12/19 00:29:00;;;;;;;10.77;4.37;;;;;;;7.50;89.70;102977.88;5038627;28;20197;-76
2021/12/19 00:31:26;;;;;;;14.47;5.33;;;;;;;7.49;90.93;102971.94;5040848;28;20194;-76
2021/12/19 00:33:52;;;;;;;16.47;5.03;;;;;;;7.50;90.62;102967.69;5043561;28;20205;-76
2021/12/19 00:36:17;;;;;;;13.23;4.67;;;;;;;7.51;90.02;102965.25;5049260;28;20280;-76
2021/12/19 00:38:42;;;;;;;13.40;4.90;;;;;;;7.52;90.77;102958.50;5037509;28;20239;-76
2021/12/19 00:41:08;;;;;;;8.70;4.60;;;;;;;7.53;90.19;102970.44;5030353;28;20202;-76
2021/12/19 00:43:44;;;;;;;13.07;4.73;;;;;;;7.54;89.44;102962.00;5040205;28;20217;-76
2021/12/19 00:46:12;;;;;;;9.80;4.30;;;;;;;7.54;89.69;102947.63;5047762;28;20235;-76
2021/12/19 00:48:47;;;;;;;7.10;3.80;;;;;;;7.55;89.56;102954.47;5047059;28;20188;-76
2021/12/19 00:51:17;;;;;;;8.60;4.37;;;;;;;7.57;89.00;102942.72;5029354;28;20190;-76
2021/12/19 00:53:44;;;;;;;14.57;5.10;;;;;;;7.56;89.61;102945.19;5046553;28;20206;-76
2021/12/19 00:56:11;;;;;;;13.33;4.30;;;;;;;7.54;89.76;102933.97;5049267;28;20213;-76
2021/12/19 00:58:36;;;;;;;10.27;4.10;;;;;;;7.55;89.73;102949.38;5032504;28;20284;-75
2021/12/19 01:01:03;;;;;;;7.77;4.10;;;;;;;7.54;88.87;102933.97;5047953;28;20269;-76
2021/12/19 01:03:29;;;;;;;12.03;4.53;;;;;;;7.56;89.47;102957.91;5035527;28;20194;-75
2021/12/19 01:05:54;;;;;;;9.57;4.57;;;;;;;7.54;89.47;102944.19;5031310;28;20221;-76
2021/12/19 01:08:20;;;;;;;15.83;5.40;;;;;;;7.54;89.35;102937.41;5028976;28;20189;-75
2021/12/19 01:10:46;;;;;;;7.90;4.90;;;;;;;7.55;89.10;102928.97;5029206;28;20253;-76
2021/12/19 01:13:13;;;;;;;14.63;5.40;;;;;;;7.56;88.91;102923.09;5040478;28;20895;-76
2021/12/19 01:15:39;;;;;;;13.17;5.10;;;;;;;7.56;90.03;102924.78;5032929;28;20805;-76
2021/12/19 01:18:05;;;;;;;14.30;5.77;;;;;;;7.55;88.76;102908.59;5041634;28;20207;-76
2021/12/19 01:20:32;;;;;;;15.70;5.90;;;;;;;7.55;88.81;102913.69;5049026;28;20199;-76
2021/12/19 01:22:58;;;;;;;12.37;5.23;;;;;;;7.54;89.89;102913.59;5037964;28;20202;-76
2021/12/19 01:25:24;;;;;;;14.57;5.50;;;;;;;7.53;89.20;102911.81;5028851;28;20297;-76
2021/12/19 01:27:49;;;;;;;19.20;5.97;;;;;;;7.54;89.37;102911.94;5029243;28;20275;-76
2021/12/19 01:30:15;;;;;;;15.57;5.60;;;;;;;7.53;88.37;102904.19;5029216;28;20236;-76
2021/12/19 01:32:42;;;;;;;14.63;5.23;;;;;;;7.52;89.12;102912.63;5036473;28;20297;-76
2021/12/19 01:35:10;;;;;;;21.20;6.23;;;;;;;7.51;89.22;102904.06;5032434;28;20202;-76
2021/12/19 01:37:36;;;;;;;16.90;5.60;;;;;;;7.51;89.06;102914.28;5032339;28;20186;-75
2021/12/19 01:40:03;;;;;;;17.53;6.40;;;;;;;7.53;88.96;102912.72;5032419;28;20237;-76
2021/12/19 01:42:32;;;;;;;14.90;5.87;;;;;;;7.54;89.07;102905.94;5038424;28;20204;-77
2021/12/19 01:44:57;;;;;;;16.77;5.90;;;;;;;7.55;88.06;102903.50;5044504;28;20256;-76
2021/12/19 01:47:23;;;;;;;15.77;5.67;;;;;;;7.56;88.97;102901.84;5044787;28;20846;-76
2021/12/19 01:49:48;;;;;;;15.13;5.73;;;;;;;7.57;88.97;102904.50;5049499;28;20216;-76
2021/12/19 01:52:13;;;;;;;20.17;6.60;;;;;;;7.58;88.91;102896.06;5051830;28;20254;-76
2021/12/19 01:54:39;;;;;;;16.27;5.73;;;;;;;7.57;89.43;102898.50;5043975;28;20648;-76
2021/12/19 01:57:04;;;;;;;19.33;6.47;;;;;;;7.58;89.19;102895.16;5032191;28;20229;-76
2021/12/19 01:59:30;;;;;;;15.07;5.80;;;;;;;7.58;90.01;102902.81;5047353;28;20240;-76
2021/12/19 02:01:56;;;;;;;17.90;7.30;;;;;;;7.60;89.42;102901.25;5035081;28;20232;-76
2021/12/19 02:04:23;;;;;;;18.67;6.67;;;;;;;7.60;89.23;102883.41;5047521;28;20210;-76
2021/12/19 02:06:49;;;;;;;22.47;8.20;;;;;;;7.60;90.14;102878.31;5051807;28;20628;-76
2021/12/19 02:09:16;;;;;;;16.97;6.37;;;;;;;7.58;90.44;102873.13;5035006;28;20197;-76
2021/12/19 02:11:42;;;;;;;18.63;8.10;;;;;;;7.58;91.11;102873.13;5030694;28;20269;-76
2021/12/19 02:14:09;;;;;;;16.63;7.40;;;;;;;7.57;90.88;102880.66;5031751;28;20289;-75
2021/12/19 02:16:39;;;;;;;15.50;6.80;;;;;;;7.57;89.47;102868.81;5031722;28;20214;-75
2021/12/19 02:19:06;;;;;;;10.90;5.40;;;;;;;7.59;89.32;102854.47;5045813;28;20186;-76
2021/12/19 02:21:32;;;;;;;17.63;5.90;;;;;;;7.60;89.64;102855.38;5043741;28;20620;-76
2021/12/19 02:23:59;;;;;;;18.00;5.83;;;;;;;7.61;88.93;102852.03;5031583;28;20296;-76
2021/12/19 02:26:24;;;;;;;20.20;6.27;;;;;;;7.61;88.40;102847.78;5030774;28;20196;-76
2021/12/19 02:28:49;;;;;;;15.47;5.83;;;;;;;7.62;89.02;102854.69;5041853;28;20273;-76
2021/12/19 02:31:15;;;;;;;16.00;6.17;;;;;;;7.63;88.77;102846.25;5051864;28;20190;-76
2021/12/19 02:33:44;;;;;;;12.67;5.43;;;;;;;7.62;89.89;102853.78;5043014;28;20261;-75
2021/12/19 02:49:22;;;;;;;15.67;5.97;;;;;;;7.58;90.39;102839.97;5047672;28;20535;-76
2021/12/19 02:51:48;;;;;;;22.37;6.33;;;;;;;7.58;89.57;102847.63;5034585;28;20205;-76
2021/12/19 02:54:13;;;;;;;16.40;5.17;;;;;;;7.61;89.40;102864.78;5050727;28;20233;-76
2021/12/19 02:56:38;;;;;;;16.57;5.60;;;;;;;7.62;88.95;102861.44;5050772;28;20224;-76
2021/12/19 02:59:04;;;;;;;25.77;6.73;;;;;;;7.62;89.69;102843.59;5048602;28;20186;-76
2021/12/19 03:01:30;;;;;;;15.83;5.60;;;;;;;7.64;89.30;102834.41;5050965;28;20551;-76
2021/12/19 03:03:55;;;;;;;13.83;5.30;;;;;;;7.64;89.99;102819.09;5048781;28;20213;-76
2021/12/19 03:06:21;;;;;;;17.27;5.67;;;;;;;7.63;89.04;102836.03;5049191;28;20189;-76
2021/12/19 03:08:49;;;;;;;12.33;4.93;;;;;;;7.63;89.39;102823.31;5038006;28;20229;-76
2021/12/19 03:11:53;;;;;;;18.40;6.13;;;;;;;7.62;89.70;102834.28;5031835;28;20179;-76
2021/12/19 03:19:36;;;;;;;14.37;5.00;;;;;;;7.61;88.87;102812.09;5031437;28;20178;-75
2021/12/19 03:22:01;;;;;;;17.10;5.23;;;;;;;7.61;89.47;102818.91;5030738;28;20671;-76
2021/12/19 03:24:26;;;;;;;14.27;5.90;;;;;;;7.59;89.40;102826.44;5044309;28;20298;-75
2021/12/19 03:26:52;;;;;;;16.90;5.87;;;;;;;7.61;88.68;102812.09;5050690;28;20251;-76
2021/12/19 03:29:17;;;;;;;14.50;5.33;;;;;;;7.63;88.43;102812.22;5047306;28;20704;-76
2021/12/19 03:31:44;;;;;;;15.50;5.53;;;;;;;7.62;88.31;102824.09;5050409;28;20723;-76
2021/12/19 03:34:10;;;;;;;13.43;6.30;;;;;;;7.62;88.56;102824.09;5037375;28;20300;-75
2021/12/19 03:36:35;;;;;;;13.73;5.83;;;;;;;7.62;88.62;102821.53;5030478;28;20289;-76
2021/12/19 03:39:13;;;;;;;15.77;5.43;;;;;;;7.60;88.01;102810.34;5040202;28;20189;-76
2021/12/19 03:41:38;;;;;;;13.53;5.60;;;;;;;7.61;88.94;102811.25;5050109;28;20577;-76
2021/12/19 03:44:05;;;;;;;15.17;6.17;;;;;;;7.60;88.53;102810.34;5042327;28;20206;-75
2021/12/19 03:46:31;;;;;;;16.43;6.77;;;;;;;7.60;88.55;102799.28;5028973;28;20186;-75
2021/12/19 03:48:56;;;;;;;21.57;7.07;;;;;;;7.58;89.81;102808.50;5030994;28;20193;-75
2021/12/19 03:51:22;;;;;;;13.83;5.13;;;;;;;7.55;89.06;102791.34;5028835;28;20178;-75
2021/12/19 03:53:48;;;;;;;10.27;4.70;;;;;;;7.56;88.48;102804.97;5030568;28;20684;-75
2021/12/19 03:56:13;;;;;;;10.00;3.60;;;;;;;7.57;88.07;102796.53;5045569;28;20201;-75
2021/12/19 03:58:39;;;;;;;13.87;3.90;;;;;;;7.57;87.66;102781.25;5041233;28;20870;-75
2021/12/19 04:01:07;;;;;;;11.80;3.33;;;;;;;7.57;86.68;102800.00;5031278;28;20260;-75
2021/12/19 04:03:32;;;;;;;6.63;2.70;;;;;;;7.58;86.53;102798.28;5018818;28;20566;-75
2021/12/19 04:05:57;;;;;;;6.90;2.30;;;;;;;7.58;86.62;102798.28;5049464;28;20190;-76
2021/12/19 04:08:23;;;;;;;4.03;2.10;;;;;;;7.59;85.85;102800.06;5043536;28;20194;-76
2021/12/19 04:10:51;;;;;;;4.80;1.97;;;;;;;7.60;86.05;102791.66;5030150;28;20198;-74
2021/12/19 04:13:17;;;;;;;6.03;2.07;;;;;;;7.58;87.08;102790.66;5038402;28;20186;-76
2021/12/19 04:15:43;;;;;;;6.33;2.30;;;;;;;7.55;87.20;102782.84;5049638;28;20270;-76
2021/12/19 04:18:09;;;;;;;7.33;2.73;;;;;;;7.53;88.24;102794.59;5043381;28;20179;-76
2021/12/19 04:20:34;;;;;;;5.07;2.97;;;;;;;7.51;88.65;102797.03;5029704;28;20205;-76
2021/12/19 04:22:59;;;;;;;6.40;2.87;;;;;;;7.46;88.77;102779.72;5035395;28;20185;-75
2021/12/19 04:25:25;;;;;;;5.40;3.00;;;;;;;7.44;88.44;102771.97;5049122;28;20209;-75
2021/12/19 04:27:50;;;;;;;5.50;2.30;;;;;;;7.40;89.25;102770.00;5040437;28;20319;-75
2021/12/19 04:30:21;;;;;;;4.10;1.97;;;;;;;7.40;88.63;102767.47;5048234;28;20840;-76
2021/12/19 04:32:57;;;;;;;7.40;2.00;;;;;;;7.39;89.14;102760.59;5047790;28;20186;-75
2021/12/19 04:35:22;;;;;;;6.70;2.23;;;;;;;7.37;88.84;102764.69;5045013;28;20818;-76
2021/12/19 04:38:20;;;;;;;10.43;2.63;;;;;;;7.33;90.26;102760.19;5048165;28;20260;-75
2021/12/19 04:54:46;;;;;;;8.20;2.73;;;;;;;7.25;91.00;102766.50;5044954;28;20214;-75
2021/12/19 05:02:02;;;;;;;4.20;2.77;;;;;;;7.20;91.42;102744.06;5049211;28;20216;-76
2021/12/19 05:15:17;;;;;;;5.43;2.30;;;;;;;7.10;94.13;102741.72;5052805;28;20729;-76
2021/12/19 05:17:42;;;;;;;4.57;2.60;;;;;;;7.08;94.15;102743.25;5049561;28;20221;-76
2021/12/19 05:20:16;;;;;;;4.13;2.40;;;;;;;7.08;93.80;102736.53;5033853;28;20277;-76
2021/12/19 05:22:47;;;;;;;5.63;2.40;;;;;;;7.09;94.63;102733.19;5032756;28;20217;-76
2021/12/19 05:25:17;;;;;;;4.83;2.50;;;;;;;7.09;94.03;102738.28;5032624;28;20222;-76
2021/12/19 05:27:55;;;;;;;3.67;2.53;;;;;;;7.10;93.64;102727.28;5043076;28;20200;-76
2021/12/19 05:30:21;;;;;;;9.37;2.87;;;;;;;7.13;94.36;102724.06;5035812;28;20217;-76
2021/12/19 05:32:48;;;;;;;5.97;3.07;;;;;;;7.11;93.50;102723.09;5050724;28;20548;-75
2021/12/19 05:35:21;;;;;;;5.30;2.80;;;;;;;7.14;92.62;102720.75;5034142;28;20293;-75
2021/12/19 05:45:57;;;;;;;10.47;3.47;;;;;;;7.17;93.38;102700.53;5041413;28;20272;-76
2021/12/19 05:48:23;;;;;;;9.57;4.00;;;;;;;7.16;93.56;102688.59;5045701;28;20277;-76
2021/12/19 05:50:48;;;;;;;10.13;3.80;;;;;;;7.18;92.78;102694.69;5032443;28;20277;-75
2021/12/19 05:53:14;;;;;;;6.83;3.50;;;;;;;7.17;92.94;102688.69;5032202;28;20214;-75
2021/12/19 05:55:39;;;;;;;10.40;3.80;;;;;;;7.21;91.97;102698.31;5032080;28;20218;-75
2021/12/19 05:58:05;;;;;;;10.13;3.20;;;;;;;7.20;92.76;102683.81;5035585;28;20188;-75
2021/12/19 06:00:32;;;;;;;13.00;4.03;;;;;;;7.21;91.74;102684.66;5030923;28;20647;-75
2021/12/19 06:02:59;;;;;;;8.37;3.20;;;;;;;7.23;91.12;102685.66;5046286;28;20659;-78
2021/12/19 06:05:24;;;;;;;11.60;3.87;;;;;;;7.24;91.72;102678.09;5047116;28;20209;-78
2021/12/19 06:07:50;;;;;;;11.17;3.20;;;;;;;7.26;91.85;102680.75;5034249;28;20186;-78
2021/12/19 06:10:15;;;;;;;10.73;3.27;;;;;;;7.28;91.62;102679.19;5034543;28;20246;-78
2021/12/19 06:12:42;;;;;;;10.97;3.73;;;;;;;7.29;90.85;102679.28;5047530;28;20182;-78
2021/12/19 06:15:10;;;;;;;8.77;3.67;;;;;;;7.33;90.70;102665.06;5042441;28;20730;-79
2021/12/19 06:17:38;;;;;;;9.70;3.90;;;;;;;7.33;90.44;102663.38;5042717;28;20196;-79
2021/12/19 06:20:04;;;;;;;8.60;3.50;;;;;;;7.34;89.96;102671.91;5057628;28;20617;-79
2021/12/19 06:22:29;;;;;;;11.47;4.07;;;;;;;7.35;89.66;102669.47;5048692;28;20583;-79
2021/12/19 06:24:55;;;;;;;10.20;3.17;;;;;;;7.39;89.06;102660.31;5037628;28;20245;-79
2021/12/19 06:27:20;;;;;;;11.77;3.67;;;;;;;7.40;89.40;102657.88;5036553;28;20183;-79
2021/12/19 06:29:45;;;;;;;11.03;3.33;;;;;;;7.42;88.30;102668.19;5037770;28;20191;-79
2021/12/19 06:32:11;;;;;;;12.47;3.47;;;;;;;7.43;88.40;102658.06;5053162;28;20290;-79
2021/12/19 06:34:36;;;;;;;9.43;3.43;;;;;;;7.42;88.69;102658.84;5055784;28;20217;-79
2021/12/19 06:37:02;;;;;;;13.23;3.67;;;;;;;7.43;88.47;102654.63;5055870;28;20213;-79
2021/12/19 06:39:27;;;;;;;11.03;3.07;;;;;;;7.46;87.65;102650.59;5039497;28;20719;-79
2021/12/19 06:41:52;;;;;;;11.40;3.13;;;;;;;7.48;87.67;102645.59;5040464;28;20264;-79
2021/12/19 06:44:18;;;;;;;8.43;3.83;;;;;;;7.50;87.07;102651.66;5055509;28;20220;-79
2021/12/19 06:46:43;;;;;;;14.77;3.97;;;;;;;7.51;88.51;102653.44;5056895;28;20178;-79
2021/12/19 06:49:09;;;;;;;11.90;3.43;;;;;;;7.48;88.29;102643.94;5055770;28;20247;-78
2021/12/19 06:51:35;;;;;;;11.90;3.27;;;;;;;7.50;88.57;102646.56;5055311;28;20197;-79
2021/12/19 06:54:02;;;;;;;13.20;3.70;;;;;;;7.49;87.97;102648.25;5041205;28;20194;-79
2021/12/19 06:56:27;;;;;;;11.40;3.30;;;;;;;7.50;88.29;102651.66;5055414;28;20206;-79
2021/12/19 06:58:53;;;;;;;9.40;3.20;;;;;;;7.50;88.07;102646.56;5054976;28;20180;-79
2021/12/19 07:01:18;;;;;;;13.97;3.43;;;;;;;7.52;88.34;102652.66;5036738;28;20269;-79
2021/12/19 07:03:44;;;;;;;14.03;3.97;;;;;;;7.52;87.28;102647.56;5039276;28;20210;-79
2021/12/19 07:06:09;;;;;;;11.23;3.30;;;;;;;7.51;88.53;102650.91;5035781;28;20228;-79
2021/12/19 07:08:34;;;;;;;15.47;4.03;;;;;;;7.51;88.46;102648.34;5045449;28;20201;-79
2021/12/19 07:10:59;;;;;;;12.50;4.00;;;;;;;7.50;88.07;102652.53;5038408;28;20189;-79
2021/12/19 07:13:25;;;;;;;15.07;3.70;;;;;;;7.49;88.64;102650.78;5050039;28;20209;-79
2021/12/19 07:15:53;;;;;;;9.87;2.80;;;;;;;7.52;87.42;102650.09;5036548;28;20217;-78
2021/12/19 07:18:19;;;;;;;10.67;2.97;;;;;;;7.52;87.29;102628.06;5037963;28;20222;-79
2021/12/19 07:20:44;;;;;;;16.13;3.07;;;;;;;7.53;86.64;102639.09;5053873;28;20200;-79
2021/12/19 07:23:12;;;;;;;9.63;2.57;;;;;;;7.53;86.29;102632.34;5054700;28;20201;-79
2021/12/19 07:25:37;;;;;;;9.97;3.13;;;;;;;7.56;86.29;102640.16;5056640;28;20670;-79
2021/12/19 07:28:02;;;;;;;12.23;3.50;;;;;;;7.56;86.15;102635.06;5054943;28;20193;-79
2021/12/19 07:30:30;;;;;;;11.50;3.17;;;;;;;7.55;87.37;102635.88;5055415;28;20240;-79
2021/12/19 07:32:56;;;;;;;8.73;3.57;;;;;;;7.53;87.15;102621.28;5055659;28;20178;-79
2021/12/19 07:35:22;;;;;;;11.50;3.77;;;;;;;7.53;87.23;102626.38;5055755;28;20275;-79
2021/12/19 07:37:50;;;;;;;11.40;2.93;;;;;;;7.54;87.86;102620.47;5054276;28;20193;-79
2021/12/19 07:40:17;;;;;;;11.73;4.00;;;;;;;7.55;86.93;102612.91;5055923;28;20232;-79
2021/12/19 07:42:44;;;;;;;9.40;3.20;;;;;;;7.58;86.11;102617.31;5054893;28;20189;-78
2021/12/19 07:45:11;;;;;;;15.03;3.57;;;;;;;7.58;87.04;102620.75;5055459;28;20368;-78
2021/12/19 07:47:38;;;;;;;8.30;3.10;;;;;;;7.61;86.39;102620.06;5054438;28;20209;-79
2021/12/19 07:50:04;;;;;;;9.03;3.20;;;;;;;7.60;86.85;102608.13;5055770;28;20189;-78
2021/12/19 07:52:29;;;;;;;14.77;3.10;;;;;;;7.60;86.22;102615.75;5054320;28;20188;-78
2021/12/19 07:54:55;;;;;;;11.37;2.80;;;;;;;7.61;86.81;102618.38;5053755;28;20778;-79
2021/12/19 07:57:20;;;;;;;11.37;3.40;;;;;;;7.63;87.03;102615.94;5054205;28;20218;-79
2021/12/19 07:59:45;;;;;;;9.03;2.80;;;;;;;7.63;86.57;102604.06;5055029;28;20185;-79
2021/12/19 08:02:11;;;;;;;10.23;3.37;;;;;;;7.66;86.55;102617.00;5055348;28;20197;-79
2021/12/19 08:04:37;;;;;;;13.10;2.80;;;;;;;7.67;86.19;102616.22;5055045;28;20205;-79
2021/12/19 08:07:02;;;;;;;12.00;2.67;;;;;;;7.66;86.96;102611.03;5055342;28;20186;-79
2021/12/19 08:09:40;;;;;;;10.70;2.50;;;;;;;7.67;86.11;102608.56;5054455;28;20269;-78
2021/12/19 08:12:06;;;;;;;11.43;2.50;;;;;;;7.69;86.63;102604.44;5051474;28;20493;-79
2021/12/19 08:14:32;;;;;;;7.47;2.87;;;;;;;7.69;86.06;102609.53;5054208;28;20583;-79
2021/12/19 08:16:58;;;;;;;8.43;2.57;;;;;;;7.72;86.19;102599.53;5054120;28;20205;-78
2021/12/19 08:19:24;;;;;;;12.33;2.63;;;;;;;7.75;85.71;102586.06;5047171;28;20186;-78
2021/12/19 08:21:50;;;;;;;10.23;2.90;;;;;;;7.75;85.37;102584.41;5031481;28;20190;-78
2021/12/19 08:24:15;;;;;;;9.97;2.60;;;;;;;7.76;85.65;102587.81;5032636;28;20224;-79
2021/12/19 08:26:43;;;;;;;9.80;2.30;;;;;;;7.77;84.73;102580.28;5033984;28;20270;-79
2021/12/19 08:29:11;;;;;;;10.80;2.37;;;;;;;7.79;85.53;102588.00;5032674;28;20186;-80
2021/12/19 08:31:37;;;;;;;13.07;3.07;;;;;;;7.77;84.91;102572.63;5035402;28;20190;-80
2021/12/19 08:34:02;;;;;;;7.80;2.30;;;;;;;7.81;84.40;102577.09;5034662;28;20224;-79
2021/12/19 08:36:27;;;;;;;16.10;2.37;;;;;;;7.81;84.67;102579.66;5021876;28;20312;-80
2021/12/19 08:38:53;;;;;;;7.93;2.27;;;;;;;7.82;85.14;102578.84;5051876;28;20197;-77
2021/12/19 08:41:18;;;;;;;8.60;2.50;;;;;;;7.81;84.92;102572.00;5041614;28;20215;-78
2021/12/19 08:43:43;;;;;;;9.33;2.70;;;;;;;7.82;85.17;102571.22;5054712;28;20197;-76
2021/12/19 08:46:11;;;;;;;10.37;2.80;;;;;;;7.82;85.37;102572.88;5048009;28;20190;-77
2021/12/19 08:48:37;;;;;;;12.10;3.00;;;;;;;7.82;85.47;102580.53;5057824;28;20203;-77
2021/12/19 08:51:02;;;;;;;8.90;2.87;;;;;;;7.81;85.10;102574.56;5059424;28;20642;-76
2021/12/19 08:53:28;;;;;;;13.07;2.83;;;;;;;7.82;85.24;102567.75;5057846;28;20185;-77
2021/12/19 08:55:53;;;;;;;8.40;2.93;;;;;;;7.85;85.48;102580.72;5060244;28;20691;-79
2021/12/19 08:58:18;;;;;;;12.93;3.03;;;;;;;7.87;84.98;102574.91;5042618;28;20679;-78
2021/12/19 09:00:44;;;;;;;10.13;3.03;;;;;;;7.87;85.83;102586.78;5045266;28;20170;-78
2021/12/19 09:03:09;;;;;;;11.60;2.60;;;;;;;7.89;84.54;102578.44;5040539;28;20182;-79
2021/12/19 09:05:35;;;;;;;9.93;2.60;;;;;;;7.91;84.35;102568.28;5041789;28;20621;-79
2021/12/19 09:08:00;;;;;;;11.33;2.73;;;;;;;7.91;85.31;102570.84;5040400;28;20182;-78
2021/12/19 09:10:26;;;;;;;11.90;2.80;;;;;;;7.94;84.65;102560.84;5051675;28;20193;-79
2021/12/19 09:12:52;;;;;;;9.90;2.30;;;;;;;7.94;84.58;102566.84;5059893;28;20635;-79
2021/12/19 09:15:19;;;;;;;13.23;3.37;;;;;;;7.96;84.82;102560.13;5060135;28;20219;-78
2021/12/19 09:17:44;;;;;;;10.07;2.60;;;;;;;7.95;84.95;102558.38;5056488;28;20205;-78
2021/12/19 09:20:10;;;;;;;11.23;2.80;;;;;;;7.95;85.22;102548.19;5042377;28;20265;-79
2021/12/19 09:22:36;;;;;;;14.37;3.10;;;;;;;7.96;84.89;102555.03;5039396;28;20182;-78
2021/12/19 09:25:03;;;;;;;11.80;2.63;;;;;;;7.98;85.08;102556.00;5039243;28;20751;-78
2021/12/19 09:27:28;;;;;;;11.70;2.50;;;;;;;7.99;84.84;102554.31;5040912;28;20264;-78
2021/12/19 09:29:53;;;;;;;18.77;3.57;;;;;;;7.98;85.40;102566.22;5055804;28;20241;-78
2021/12/19 09:32:20;;;;;;;15.90;3.23;;;;;;;8.00;85.35;102561.19;5056765;28;20185;-77
2021/12/19 09:34:45;;;;;;;11.17;2.70;;;;;;;8.00;85.45;102551.88;5053092;28;20229;-77
2021/12/19 09:37:12;;;;;;;13.07;3.07;;;;;;;8.01;85.03;102557.84;5057297;28;20240;-78
2021/12/19 09:39:38;;;;;;;13.23;2.77;;;;;;;8.02;85.24;102547.72;5056977;28;20557;-77
2021/12/19 09:42:10;;;;;;;16.87;3.17;;;;;;;8.02;85.87;102544.31;5057209;28;20242;-77
2021/12/19 09:44:37;;;;;;;13.27;2.90;;;;;;;8.08;85.99;102554.84;5058431;28;20726;-80
2021/12/19 09:47:04;;;;;;;8.93;2.80;;;;;;;8.07;85.64;102553.09;5040621;28;20190;-79
2021/12/19 09:49:30;;;;;;;9.63;3.10;;;;;;;8.08;85.95;102554.84;5036207;28;20182;-79
2021/12/19 09:51:55;;;;;;;13.00;2.80;;;;;;;8.09;85.56;102546.41;5033083;28;20186;-78
2021/12/19 09:54:21;;;;;;;15.27;2.90;;;;;;;8.09;85.35;102537.09;5032393;28;20202;-78
2021/12/19 09:56:48;;;;;;;9.70;3.07;;;;;;;8.10;85.48;102530.28;5032207;28;20217;-77
2021/12/19 09:59:19;;;;;;;11.90;2.97;;;;;;;8.13;85.66;102530.47;5032115;28;20228;-77
2021/12/19 10:01:46;;;;;;;14.43;3.07;;;;;;;8.14;84.89;102522.91;5032235;28;20296;-76
2021/12/19 10:04:36;;;;;;;13.07;3.23;;;;;;;8.17;85.62;102519.66;5032146;28;20202;-77
2021/12/19 10:07:23;;;;;;;13.17;2.70;;;;;;;8.19;84.95;102530.81;5032084;28;20184;-77
2021/12/19 10:10:04;;;;;;;18.37;4.50;;;;;;;8.21;85.41;102525.03;5031972;28;20182;-76
2021/12/19 10:12:48;;;;;;;13.83;3.13;;;;;;;8.24;84.65;102517.56;5032141;28;20194;-77
2021/12/19 10:15:26;;;;;;;15.73;4.80;;;;;;;8.23;84.58;102513.25;5032389;28;20626;-77
2021/12/19 10:18:09;;;;;;;11.70;2.80;;;;;;;8.26;84.16;102510.00;5031862;28;20639;-75
2021/12/19 10:20:59;;;;;;;12.77;2.67;;;;;;;8.28;83.91;102495.63;5031795;28;20224;-76
2021/12/19 10:23:30;;;;;;;9.90;2.40;;;;;;;8.29;84.27;102499.97;5045819;28;20350;-76
2021/12/19 10:26:06;;;;;;;14.27;2.97;;;;;;;8.32;83.80;102498.44;5032011;28;20600;-78
2021/12/19 10:28:33;;;;;;;11.87;3.27;;;;;;;8.32;84.24;102487.34;5032989;28;20281;-78
2021/12/19 10:31:00;;;;;;;9.60;3.10;;;;;;;8.33;83.91;102487.44;5033375;28;20201;-78
2021/12/19 10:33:29;;;;;;;11.60;3.30;;;;;;;8.34;83.65;102494.28;5033676;28;20218;-77
2021/12/19 10:36:00;;;;;;;10.37;2.60;;;;;;;8.34;83.89;102491.75;5032426;28;20588;-77
2021/12/19 10:38:32;;;;;;;10.53;2.60;;;;;;;8.35;83.76;102495.19;5031896;28;20186;-76
2021/12/19 10:41:01;;;;;;;13.47;3.17;;;;;;;8.36;83.50;102490.16;5032071;28;20178;-76
2021/12/19 10:43:31;;;;;;;9.30;2.93;;;;;;;8.38;83.36;102487.72;5053850;28;20199;-77
2021/12/19 10:46:03;;;;;;;12.93;3.00;;;;;;;8.38;83.04;102469.84;5071706;28;20185;-77
2021/12/19 10:48:36;;;;;;;9.17;2.77;;;;;;;8.38;83.99;102462.19;5070065;28;20277;-76
2021/12/19 10:51:19;;;;;;;14.70;3.20;;;;;;;8.40;83.74;102461.47;5071611;28;20199;-77
2021/12/19 10:53:44;;;;;;;13.67;3.00;;;;;;;8.39;84.10;102463.94;5072953;28;20600;-77
2021/12/19 10:56:12;;;;;;;14.00;3.07;;;;;;;8.41;83.06;102458.13;5070939;28;20205;-77
2021/12/19 10:58:48;;;;;;;12.03;2.70;;;;;;;8.42;83.27;102452.22;5070491;28;20208;-76
2021/12/19 11:01:16;;;;;;;15.50;3.43;;;;;;;8.45;83.44;102438.72;5070018;28;20641;-77
2021/12/19 11:04:04;;;;;;;11.23;2.63;;;;;;;8.46;83.84;102441.38;5070779;28;20201;-76
2021/12/19 11:06:43;;;;;;;10.73;3.43;;;;;;;8.46;83.52;102438.81;5066658;28;20592;-76
2021/12/19 11:09:29;;;;;;;13.07;2.90;;;;;;;8.47;83.51;102430.34;5071138;28;20200;-76
2021/12/19 11:12:06;;;;;;;12.97;3.27;;;;;;;8.49;83.76;102435.53;5071072;28;20180;-76
2021/12/19 11:14:38;;;;;;;11.57;3.47;;;;;;;8.50;84.32;102434.75;5070873;28;20200;-77
2021/12/19 11:17:10;;;;;;;9.20;2.77;;;;;;;8.51;83.55;102424.63;5071106;28;20216;-78
2021/12/19 11:19:36;;;;;;;12.40;3.40;;;;;;;8.54;83.33;102450.31;5053638;28;20219;-76
2021/12/19 11:22:03;;;;;;;14.67;3.27;;;;;;;8.53;83.16;102435.78;5068296;28;20741;-75
2021/12/19 11:24:28;;;;;;;12.50;2.93;;;;;;;8.52;83.14;102428.91;5051544;28;20224;-77
2021/12/19 11:26:57;;;;;;;9.63;3.43;;;;;;;8.55;83.46;102423.09;5053490;28;20540;-77
2021/12/19 11:29:23;;;;;;;13.03;3.23;;;;;;;8.56;83.51;102412.09;5051903;28;20185;-76
2021/12/19 11:31:57;;;;;;;13.10;2.60;;;;;;;8.55;84.14;102400.13;5051113;28;20327;-76
2021/12/19 11:34:51;;;;;;;16.73;2.83;;;;;;;8.56;83.93;102412.97;5051501;28;20213;-80
2021/12/19 11:37:22;;;;;;;13.90;2.80;;;;;;;8.58;84.04;102415.59;5052312;28;20198;-77
2021/12/19 11:39:53;;;;;;;14.70;3.47;;;;;;;8.58;83.69;102402.84;5050273;28;20186;-76
2021/12/19 11:42:28;;;;;;;13.07;3.20;;;;;;;8.60;83.64;102403.78;5050120;28;20674;-77
2021/12/19 11:47:36;;;;;;;9.30;2.40;;;;;;;8.92;84.71;102397.00;5052086;28;20277;-76
2021/12/19 11:50:20;;;;;;;10.47;2.93;;;;;;;8.98;83.87;102401.56;5049917;28;20197;-76
2021/12/19 11:52:45;;;;;;;13.30;3.00;;;;;;;8.79;82.43;102386.94;5051196;28;20197;-77
2021/12/19 11:55:13;;;;;;;11.43;2.80;;;;;;;8.74;82.63;102388.41;5051305;28;20549;-78
2021/12/19 11:58:03;;;;;;;12.20;3.37;;;;;;;8.70;82.64;102377.97;5051550;28;20241;-78
2021/12/19 12:00:35;;;;;;;9.53;2.40;;;;;;;8.72;82.90;102368.69;5032210;28;20239;-77
2021/12/19 12:03:12;;;;;;;10.73;2.60;;;;;;;8.73;82.44;102371.31;5037516;28;20593;-77
2021/12/19 12:05:41;;;;;;;9.50;2.77;;;;;;;8.76;83.11;102370.59;5045827;28;20687;-79
2021/12/19 12:08:07;;;;;;;10.37;2.80;;;;;;;8.73;82.76;102373.00;5045077;28;20201;-79
2021/12/19 12:10:58;;;;;;;11.50;2.93;;;;;;;8.74;82.53;102362.84;5058140;22;20275;-78
2021/12/19 12:13:32;;;;;;;10.00;2.60;;;;;;;8.73;82.19;102348.34;5037450;28;20209;-77
2021/12/19 12:16:28;;;;;;;11.93;2.47;;;;;;;8.79;82.96;102345.19;5048638;28;20224;-77
2021/12/19 12:18:58;;;;;;;13.20;3.37;;;;;;;8.75;81.34;102350.97;5030274;28;20197;-76
2021/12/19 12:21:33;;;;;;;10.33;2.57;;;;;;;8.78;82.10;102352.00;5048803;28;20724;-77
2021/12/19 12:24:05;;;;;;;9.53;2.83;;;;;;;8.76;82.61;102338.25;5031186;28;20566;-77
2021/12/19 12:26:46;;;;;;;10.27;2.97;;;;;;;8.77;81.26;102336.59;5025163;28;20226;-77
2021/12/19 12:29:12;;;;;;;12.30;2.33;;;;;;;8.79;81.54;102335.88;5048731;28;20181;-76
2021/12/19 12:31:40;;;;;;;12.63;2.60;;;;;;;8.76;81.15;102329.75;5027168;28;20186;-76
2021/12/19 12:34:09;;;;;;;17.47;3.00;;;;;;;8.78;80.48;102330.69;5028342;28;20294;-77
2021/12/19 12:36:35;;;;;;;9.13;2.57;;;;;;;8.76;80.42;102324.63;5048458;28;20562;-77
2021/12/19 12:39:06;;;;;;;13.73;3.23;;;;;;;8.75;80.77;102320.34;5029882;28;20245;-74